Time;durP1;ratioP1;P1;durP2;ratioP2;P2;SDS_P1;SDS_P2;PMS_P1;PMS_P2;Temp;Humidity;BMP_temperature;BMP_pressure;BME280_temperature;BME280_humidity;BME280_pressure;Samples;Min_cycle;Max_cycle;Signal;HPM_P1;HPM_P2
2023/06/03 00:01:18;;;;;;;5.40;2.53;;;20.20;62.20;;;;;;4995239;28;20049;-65
2023/06/03 00:03:46;;;;;;;3.47;2.30;;;20.20;62.20;;;;;;4991027;28;20113;-64
2023/06/03 00:06:12;;;;;;;6.40;3.17;;;20.30;62.20;;;;;;4987675;28;20026;-61
2023/06/03 00:08:39;;;;;;;6.18;2.60;;;20.30;62.30;;;;;;4997259;28;20072;-65
2023/06/03 00:11:04;;;;;;;4.63;2.50;;;20.20;62.20;;;;;;5000023;28;20417;-65
2023/06/03 00:13:30;;;;;;;4.20;2.38;;;20.30;62.30;;;;;;4999464;28;20030;-65
2023/06/03 00:15:55;;;;;;;5.82;3.42;;;20.20;62.20;;;;;;5003752;28;20088;-64
2023/06/03 00:18:21;;;;;;;2.95;2.45;;;20.30;62.20;;;;;;5003115;28;20148;-60
2023/06/03 00:20:47;;;;;;;3.90;2.53;;;20.30;62.20;;;;;;5003422;28;20022;-65
2023/06/03 00:23:16;;;;;;;4.55;2.03;;;20.20;62.20;;;;;;5001720;28;20103;-61
2023/06/03 00:25:42;;;;;;;4.40;2.08;;;20.20;62.10;;;;;;5000953;28;20037;-65
2023/06/03 00:28:08;;;;;;;2.88;1.88;;;20.20;62.20;;;;;;4999153;28;20014;-65
2023/06/03 00:30:34;;;;;;;3.42;2.58;;;20.20;62.10;;;;;;4998719;28;20034;-64
2023/06/03 00:32:59;;;;;;;7.30;2.92;;;20.20;62.20;;;;;;4996088;28;20093;-65
2023/06/03 00:35:25;;;;;;;2.92;1.88;;;20.20;62.10;;;;;;4995172;28;20117;-63
2023/06/03 00:37:50;;;;;;;2.92;2.13;;;20.20;62.10;;;;;;4996478;28;20053;-66
2023/06/03 00:40:16;;;;;;;3.22;2.05;;;20.20;62.10;;;;;;4994015;28;20031;-65
2023/06/03 00:42:41;;;;;;;2.60;1.73;;;20.20;62.10;;;;;;4995083;28;20030;-61
2023/06/03 00:45:07;;;;;;;2.60;1.77;;;20.20;62.20;;;;;;5001911;28;20108;-61
2023/06/03 00:47:32;;;;;;;3.25;2.25;;;20.20;62.10;;;;;;5002706;28;20622;-60
2023/06/03 00:49:58;;;;;;;3.35;1.83;;;20.20;62.00;;;;;;5000736;28;20030;-65
2023/06/03 00:52:25;;;;;;;2.75;2.05;;;20.20;62.10;;;;;;5000460;28;20621;-64
2023/06/03 00:54:52;;;;;;;3.55;1.77;;;20.20;62.00;;;;;;5000326;28;20030;-65
2023/06/03 00:57:21;;;;;;;4.07;1.98;;;20.20;62.10;;;;;;4998239;28;20041;-65
2023/06/03 00:59:46;;;;;;;2.53;1.73;;;20.20;62.00;;;;;;4996087;28;20029;-65
2023/06/03 01:02:13;;;;;;;3.00;1.48;;;20.20;62.00;;;;;;4994620;28;20401;-61
2023/06/03 01:04:39;;;;;;;3.15;1.55;;;20.20;62.00;;;;;;4994360;28;20124;-65
2023/06/03 01:07:36;;;;;;;2.78;1.48;;;20.20;62.00;;;;;;4995429;28;20026;-61
2023/06/03 01:10:37;;;;;;;2.63;1.60;;;20.20;62.00;;;;;;4955572;28;20030;-65
2023/06/03 01:13:12;;;;;;;2.08;1.63;;;20.10;62.00;;;;;;4993758;28;20035;-62
2023/06/03 01:15:42;;;;;;;3.45;1.75;;;20.10;61.90;;;;;;5001733;28;20113;-64
2023/06/03 01:18:07;;;;;;;1.83;1.50;;;20.10;62.00;;;;;;4999408;28;20025;-65
2023/06/03 01:20:34;;;;;;;1.80;1.15;;;20.20;62.00;;;;;;5002635;28;20409;-64
2023/06/03 01:23:19;;;;;;;2.42;1.60;;;20.10;61.90;;;;;;4998419;28;20026;-62
2023/06/03 01:25:45;;;;;;;1.77;1.30;;;20.10;61.90;;;;;;4998358;28;20033;-65
2023/06/03 01:28:10;;;;;;;2.13;1.45;;;20.10;62.00;;;;;;4995074;28;20076;-64
2023/06/03 01:30:36;;;;;;;2.50;1.40;;;20.10;61.90;;;;;;4997156;28;20139;-64
2023/06/03 01:33:03;;;;;;;2.50;1.10;;;20.10;61.90;;;;;;4991128;28;20023;-63
2023/06/03 01:35:29;;;;;;;2.85;1.30;;;20.10;61.90;;;;;;4995050;28;20049;-65
2023/06/03 01:37:55;;;;;;;1.88;1.35;;;20.10;61.90;;;;;;5001688;28;20042;-64
2023/06/03 01:40:22;;;;;;;2.05;1.13;;;20.10;61.90;;;;;;4994469;28;20403;-65
2023/06/03 01:42:47;;;;;;;4.32;1.50;;;20.10;61.90;;;;;;4995123;28;20038;-65
2023/06/03 01:45:13;;;;;;;2.20;1.10;;;20.10;61.80;;;;;;5000907;28;20493;-63
2023/06/03 01:47:39;;;;;;;2.45;1.23;;;20.10;61.90;;;;;;5001474;28;20046;-60
2023/06/03 01:50:05;;;;;;;1.98;1.13;;;20.10;61.90;;;;;;5002536;28;20026;-65
2023/06/03 01:52:30;;;;;;;2.58;1.00;;;20.10;61.90;;;;;;5000807;28;20101;-63
2023/06/03 01:54:56;;;;;;;1.85;0.90;;;20.10;61.80;;;;;;4998695;28;20456;-61
2023/06/03 01:57:21;;;;;;;1.88;1.00;;;20.10;61.80;;;;;;4995866;28;20030;-65
2023/06/03 01:59:47;;;;;;;1.30;1.20;;;20.10;61.80;;;;;;4995999;28;20668;-65
2023/06/03 02:02:12;;;;;;;1.75;0.82;;;20.10;61.80;;;;;;4994613;28;20035;-65
2023/06/03 02:04:38;;;;;;;1.55;1.13;;;20.10;61.90;;;;;;4993833;28;20096;-65
2023/06/03 02:07:04;;;;;;;1.35;1.20;;;20.10;61.80;;;;;;4994634;28;20117;-63
2023/06/03 02:09:30;;;;;;;1.70;1.30;;;20.00;61.70;;;;;;4993227;28;20034;-61
2023/06/03 02:11:57;;;;;;;2.03;1.05;;;20.10;61.80;;;;;;4994807;28;20033;-61
2023/06/03 02:14:23;;;;;;;1.65;1.05;;;20.00;61.70;;;;;;5000253;28;20038;-64
2023/06/03 02:16:49;;;;;;;1.40;0.90;;;20.00;61.80;;;;;;5002031;28;20731;-64
2023/06/03 02:19:16;;;;;;;1.67;0.98;;;20.00;61.70;;;;;;5000494;28;20034;-64
2023/06/03 02:21:43;;;;;;;0.80;0.80;;;20.00;61.70;;;;;;4997433;28;20396;-65
2023/06/03 02:24:09;;;;;;;1.83;1.05;;;20.00;61.80;;;;;;4998432;28;20026;-65
2023/06/03 02:26:36;;;;;;;1.60;0.93;;;20.00;61.80;;;;;;4997516;28;20582;-61
2023/06/03 02:29:02;;;;;;;1.65;1.00;;;20.00;61.80;;;;;;4997563;28;20030;-63
2023/06/03 02:31:29;;;;;;;0.75;0.70;;;20.00;61.70;;;;;;4999974;28;20069;-61
2023/06/03 02:33:55;;;;;;;0.80;0.70;;;20.00;61.80;;;;;;4997547;28;20570;-62
2023/06/03 02:36:20;;;;;;;1.95;1.05;;;20.00;61.70;;;;;;4998158;28;20030;-66
2023/06/03 02:38:47;;;;;;;1.42;0.80;;;20.00;61.70;;;;;;4994076;28;20076;-61
2023/06/03 02:41:13;;;;;;;1.08;0.70;;;20.00;61.70;;;;;;4997161;28;20037;-65
2023/06/03 02:43:40;;;;;;;2.45;1.00;;;20.00;61.80;;;;;;5001219;28;20070;-65
2023/06/03 02:46:06;;;;;;;1.77;0.90;;;20.00;61.70;;;;;;5000789;28;20054;-65
2023/06/03 02:48:31;;;;;;;1.88;0.80;;;20.00;61.80;;;;;;5001622;28;20053;-65
2023/06/03 02:50:57;;;;;;;2.03;0.90;;;20.00;61.70;;;;;;4999351;28;20144;-63
2023/06/03 02:53:22;;;;;;;3.97;1.17;;;20.00;61.70;;;;;;4997610;28;20043;-64
2023/06/03 02:55:48;;;;;;;1.85;1.08;;;20.00;61.70;;;;;;4995112;28;20070;-66
2023/06/03 02:58:15;;;;;;;1.15;0.80;;;20.00;61.80;;;;;;4994838;28;20456;-64
2023/06/03 03:00:41;;;;;;;2.28;0.85;;;20.00;61.70;;;;;;4988996;28;20034;-65
2023/06/03 03:03:06;;;;;;;1.02;0.85;;;20.00;61.70;;;;;;4992700;28;20026;-61
2023/06/03 03:05:34;;;;;;;1.38;0.82;;;20.00;61.70;;;;;;4994676;28;20088;-64
2023/06/03 03:07:59;;;;;;;1.15;0.57;;;20.00;61.70;;;;;;4991397;28;20026;-65
2023/06/03 03:10:25;;;;;;;2.88;1.25;;;20.00;61.70;;;;;;4993218;28;20418;-64
2023/06/03 03:12:51;;;;;;;1.45;0.70;;;20.00;61.70;;;;;;4999236;28;20084;-64
2023/06/03 03:15:16;;;;;;;2.25;0.70;;;19.90;61.60;;;;;;4999949;28;20433;-62
2023/06/03 03:17:42;;;;;;;1.50;0.93;;;19.90;61.60;;;;;;4998874;28;20045;-64
2023/06/03 03:20:09;;;;;;;1.95;0.65;;;19.90;61.70;;;;;;4997229;28;20053;-62
2023/06/03 03:22:39;;;;;;;1.15;0.80;;;19.90;61.70;;;;;;4997260;28;20408;-66
2023/06/03 03:25:05;;;;;;;1.17;0.70;;;19.90;61.60;;;;;;4994929;28;20540;-66
2023/06/03 03:27:31;;;;;;;0.90;0.77;;;19.90;61.60;;;;;;4997776;28;20034;-65
2023/06/03 03:30:00;;;;;;;1.35;0.50;;;19.90;61.70;;;;;;4989893;28;20030;-65
2023/06/03 03:32:25;;;;;;;1.30;0.82;;;19.90;61.70;;;;;;4990614;28;20069;-60
2023/06/03 03:35:13;;;;;;;0.60;0.52;;;19.90;61.60;;;;;;4997402;28;20119;-63
2023/06/03 03:37:39;;;;;;;2.28;0.93;;;19.90;61.50;;;;;;4993938;28;20045;-65
2023/06/03 03:40:21;;;;;;;1.20;0.80;;;20.00;61.50;;;;;;4991562;28;20027;-65
2023/06/03 03:42:51;;;;;;;0.77;0.60;;;20.00;61.50;;;;;;5001362;28;20027;-65
2023/06/03 03:45:19;;;;;;;1.58;0.80;;;19.90;61.50;;;;;;5001300;28;20050;-65
2023/06/03 03:47:51;;;;;;;1.83;0.90;;;19.90;61.40;;;;;;5003427;28;20346;-65
2023/06/03 03:50:43;;;;;;;1.25;0.68;;;19.90;61.40;;;;;;5001738;28;20096;-65
2023/06/03 03:53:15;;;;;;;2.50;1.25;;;20.00;61.50;;;;;;5000786;28;20038;-65
2023/06/03 03:55:46;;;;;;;1.50;0.80;;;19.90;61.40;;;;;;4996869;28;20030;-65
2023/06/03 03:58:36;;;;;;;1.08;0.80;;;19.90;61.40;;;;;;4999424;28;20033;-65
2023/06/03 04:01:16;;;;;;;1.05;0.50;;;20.00;61.50;;;;;;5004057;28;20505;-65
2023/06/03 04:03:45;;;;;;;1.73;0.90;;;20.00;61.50;;;;;;4997024;28;20121;-65
2023/06/03 04:06:13;;;;;;;2.33;0.73;;;19.90;61.40;;;;;;4993038;28;20030;-61
2023/06/03 04:08:40;;;;;;;0.90;0.60;;;19.90;61.40;;;;;;4995184;28;20030;-64
2023/06/03 04:11:14;;;;;;;2.13;0.60;;;20.00;61.40;;;;;;5002185;28;20049;-65
2023/06/03 04:13:43;;;;;;;1.48;0.70;;;19.90;61.30;;;;;;5003738;28;20034;-65
2023/06/03 04:16:10;;;;;;;0.88;0.60;;;20.00;61.40;;;;;;5003515;28;20046;-64
2023/06/03 04:18:42;;;;;;;1.38;0.75;;;19.90;61.30;;;;;;5002128;28;20026;-65
2023/06/03 04:21:13;;;;;;;2.17;0.70;;;19.90;61.40;;;;;;4999896;28;20030;-64
2023/06/03 04:23:38;;;;;;;1.30;0.65;;;19.90;61.40;;;;;;4993144;28;20723;-64
2023/06/03 04:26:04;;;;;;;2.58;0.90;;;19.90;61.40;;;;;;5001710;28;20023;-64
2023/06/03 04:28:29;;;;;;;1.20;0.60;;;19.90;61.40;;;;;;4999391;28;20026;-64
2023/06/03 04:30:55;;;;;;;1.48;0.80;;;19.90;61.30;;;;;;4991582;28;20215;-65
2023/06/03 04:33:20;;;;;;;1.55;0.75;;;19.90;61.40;;;;;;4999714;28;20022;-64
2023/06/03 04:35:46;;;;;;;0.75;0.50;;;19.90;61.30;;;;;;4994522;28;20149;-65
2023/06/03 04:38:11;;;;;;;2.97;0.70;;;20.00;61.30;;;;;;4994612;28;20037;-64
2023/06/03 04:40:37;;;;;;;1.08;0.60;;;20.00;61.30;;;;;;4999395;28;20033;-64
2023/06/03 04:43:03;;;;;;;1.55;0.73;;;20.00;61.20;;;;;;5001283;28;20022;-64
2023/06/03 04:45:32;;;;;;;1.50;0.90;;;20.00;61.00;;;;;;5003308;28;20030;-61
2023/06/03 04:48:01;;;;;;;1.15;0.70;;;20.10;61.10;;;;;;5001338;28;20490;-65
2023/06/03 04:50:27;;;;;;;0.88;0.70;;;20.10;60.90;;;;;;4999660;28;20042;-64
2023/06/03 04:52:56;;;;;;;2.13;1.00;;;20.10;60.90;;;;;;4997145;28;20053;-60
2023/06/03 04:55:22;;;;;;;0.98;0.63;;;20.10;61.00;;;;;;4998180;28;20040;-64
2023/06/03 04:57:50;;;;;;;1.65;0.77;;;20.20;61.00;;;;;;4994280;28;20038;-65
2023/06/03 05:00:19;;;;;;;1.42;0.60;;;20.10;61.00;;;;;;4990768;28;20507;-63
2023/06/03 05:02:54;;;;;;;1.60;0.60;;;20.20;61.10;;;;;;4997556;28;20123;-64
2023/06/03 05:05:23;;;;;;;1.13;0.60;;;20.20;61.00;;;;;;4994740;28;20034;-65
2023/06/03 05:07:49;;;;;;;1.73;0.60;;;20.20;61.00;;;;;;4998838;28;20038;-64
2023/06/03 05:10:15;;;;;;;1.35;0.95;;;20.20;61.10;;;;;;5001561;28;20425;-61
2023/06/03 05:12:41;;;;;;;1.52;0.90;;;20.20;61.00;;;;;;5001780;28;20034;-60
2023/06/03 05:15:07;;;;;;;0.93;0.70;;;20.20;61.10;;;;;;5002359;28;20046;-65
2023/06/03 05:17:33;;;;;;;1.42;1.00;;;20.20;61.10;;;;;;5001760;28;20393;-65
2023/06/03 05:19:58;;;;;;;1.23;0.75;;;20.20;61.10;;;;;;5000429;28;20089;-65
2023/06/03 05:22:24;;;;;;;1.02;0.60;;;20.20;61.20;;;;;;4998467;28;20030;-65
2023/06/03 05:24:50;;;;;;;0.73;0.60;;;20.20;61.10;;;;;;4995901;28;20042;-65
2023/06/03 05:27:15;;;;;;;0.80;0.50;;;20.20;61.20;;;;;;4995751;28;20026;-63
2023/06/03 05:29:41;;;;;;;1.02;0.70;;;20.20;61.10;;;;;;5001183;28;20034;-65
2023/06/03 05:32:06;;;;;;;0.50;0.50;;;20.20;61.10;;;;;;4994854;28;20034;-64
2023/06/03 05:34:32;;;;;;;1.17;0.60;;;20.20;61.10;;;;;;4998519;28;20042;-64
2023/06/03 05:36:57;;;;;;;0.85;0.65;;;20.20;61.10;;;;;;4996141;28;20089;-65
2023/06/03 05:39:23;;;;;;;0.77;0.60;;;20.20;61.10;;;;;;5001447;28;20077;-65
2023/06/03 05:41:48;;;;;;;0.60;0.50;;;20.20;61.20;;;;;;5001584;28;20069;-66
2023/06/03 05:44:14;;;;;;;0.85;0.60;;;20.20;61.20;;;;;;5004352;28;20030;-68
2023/06/03 05:46:39;;;;;;;0.80;0.70;;;20.20;61.20;;;;;;5000215;28;20030;-65
2023/06/03 05:49:05;;;;;;;1.10;0.55;;;20.20;61.20;;;;;;5000554;28;20049;-64
2023/06/03 05:51:30;;;;;;;0.98;0.60;;;20.20;61.30;;;;;;4999365;28;20105;-65
2023/06/03 05:53:56;;;;;;;2.15;0.98;;;20.20;61.30;;;;;;4995221;28;20065;-66
2023/06/03 05:56:21;;;;;;;1.10;0.98;;;20.20;61.30;;;;;;4995478;28;20109;-65
2023/06/03 05:58:48;;;;;;;0.93;0.70;;;20.20;61.30;;;;;;4993178;28;20050;-64
2023/06/03 06:01:14;;;;;;;2.47;0.75;;;20.20;61.30;;;;;;4994303;28;20033;-65
2023/06/03 06:03:41;;;;;;;0.98;0.70;;;20.20;61.30;;;;;;4994160;28;20034;-65
2023/06/03 06:06:06;;;;;;;0.90;0.65;;;20.20;61.30;;;;;;4994669;28;20035;-65
2023/06/03 06:08:32;;;;;;;0.80;0.70;;;20.20;61.30;;;;;;4997678;28;20044;-65
2023/06/03 06:10:57;;;;;;;1.88;0.98;;;20.20;61.20;;;;;;5000862;28;20021;-64
2023/06/03 06:13:23;;;;;;;0.75;0.57;;;20.20;61.30;;;;;;5001356;28;20034;-65
2023/06/03 06:16:00;;;;;;;1.80;0.85;;;20.20;61.20;;;;;;5000500;28;20034;-64
2023/06/03 06:18:26;;;;;;;0.70;0.60;;;20.20;61.10;;;;;;4998223;28;20066;-64
2023/06/03 06:20:51;;;;;;;1.17;0.73;;;20.20;61.20;;;;;;4996565;28;20034;-65
2023/06/03 06:23:17;;;;;;;1.45;0.80;;;20.20;61.10;;;;;;4993981;28;20030;-63
2023/06/03 06:25:48;;;;;;;0.65;0.47;;;20.20;61.10;;;;;;4997551;28;20471;-65
2023/06/03 06:28:15;;;;;;;1.98;0.68;;;20.20;61.20;;;;;;4990656;28;20030;-67
2023/06/03 06:30:40;;;;;;;1.13;0.70;;;20.20;61.20;;;;;;4998366;28;20038;-64
2023/06/03 06:33:06;;;;;;;1.00;0.77;;;20.20;61.10;;;;;;4992323;28;20037;-67
2023/06/03 06:35:33;;;;;;;1.27;0.60;;;20.20;61.10;;;;;;4994660;28;20084;-64
2023/06/03 06:37:58;;;;;;;0.63;0.63;;;20.20;61.20;;;;;;4998947;28;20022;-64
2023/06/03 06:40:33;;;;;;;2.88;0.68;;;20.20;61.00;;;;;;4998517;28;20534;-66
2023/06/03 06:42:58;;;;;;;2.28;0.90;;;20.20;61.10;;;;;;4996348;28;20026;-66
2023/06/03 06:45:27;;;;;;;3.10;0.80;;;20.20;61.20;;;;;;4997439;28;20037;-65
2023/06/03 06:48:04;;;;;;;1.55;0.77;;;20.30;61.40;;;;;;4994220;28;20038;-64
2023/06/03 06:50:55;;;;;;;3.45;1.10;;;20.30;61.30;;;;;;4994685;28;20536;-64
2023/06/03 06:53:25;;;;;;;2.90;0.77;;;20.20;61.20;;;;;;4993031;28;20046;-65
2023/06/03 06:55:55;;;;;;;1.05;0.80;;;20.20;61.30;;;;;;4995001;28;20061;-66
2023/06/03 06:58:22;;;;;;;2.10;0.80;;;20.30;61.40;;;;;;4993629;28;20030;-68
2023/06/03 07:00:49;;;;;;;3.10;1.20;;;20.20;61.30;;;;;;5003032;28;20081;-67
2023/06/03 07:03:17;;;;;;;4.97;1.38;;;20.20;61.40;;;;;;5000983;28;20030;-65
2023/06/03 07:05:43;;;;;;;2.72;1.05;;;20.20;61.40;;;;;;5000871;28;20089;-65
2023/06/03 07:08:09;;;;;;;4.47;0.90;;;20.20;61.50;;;;;;5000388;28;20400;-68
2023/06/03 07:10:35;;;;;;;1.67;0.70;;;20.30;61.70;;;;;;5001744;28;20127;-66
2023/06/03 07:13:02;;;;;;;6.63;1.20;;;20.30;61.60;;;;;;4999511;28;20058;-66
2023/06/03 07:15:28;;;;;;;6.20;1.30;;;20.30;61.70;;;;;;4998057;28;20045;-66
2023/06/03 07:17:55;;;;;;;5.95;1.55;;;20.20;61.80;;;;;;4998457;28;20023;-69
2023/06/03 07:20:35;;;;;;;2.67;1.00;;;20.30;61.80;;;;;;4995081;28;20038;-67
2023/06/03 07:23:06;;;;;;;4.97;1.50;;;20.20;62.00;;;;;;4992956;28;20456;-64
2023/06/03 07:25:43;;;;;;;1.35;1.00;;;20.20;62.00;;;;;;4991390;28;20035;-68
2023/06/03 07:28:11;;;;;;;4.05;1.25;;;20.20;62.00;;;;;;4995986;28;20045;-66
2023/06/03 07:30:37;;;;;;;2.85;1.30;;;20.20;62.00;;;;;;4998234;28;20058;-65
2023/06/03 07:33:04;;;;;;;2.22;1.30;;;20.20;61.90;;;;;;5001475;28;20034;-65
2023/06/03 07:35:30;;;;;;;3.00;1.20;;;20.20;61.80;;;;;;4998352;28;20463;-65
2023/06/03 07:37:55;;;;;;;3.42;1.40;;;20.20;61.80;;;;;;5002026;28;20030;-65
2023/06/03 07:40:39;;;;;;;1.80;1.20;;;20.20;61.70;;;;;;5001877;28;20556;-66
2023/06/03 07:43:06;;;;;;;4.15;1.25;;;20.20;61.60;;;;;;5002128;28;20649;-66
2023/06/03 07:45:32;;;;;;;2.88;1.27;;;20.20;61.40;;;;;;4998148;28;20172;-65
2023/06/03 07:48:00;;;;;;;2.85;1.10;;;20.20;61.30;;;;;;4998057;28;20049;-66
2023/06/03 07:50:26;;;;;;;2.42;1.40;;;20.20;61.20;;;;;;4992392;28;20054;-65
2023/06/03 07:53:03;;;;;;;2.88;1.80;;;20.20;61.30;;;;;;4995883;28;20073;-63
2023/06/03 07:55:46;;;;;;;4.70;1.48;;;20.20;61.20;;;;;;4991908;28;20390;-66
2023/06/03 07:58:12;;;;;;;2.67;1.42;;;20.20;61.20;;;;;;4995952;28;20049;-62
2023/06/03 08:00:45;;;;;;;4.57;1.70;;;20.20;61.30;;;;;;4992927;28;20128;-65
2023/06/03 08:03:18;;;;;;;4.30;1.55;;;20.10;61.20;;;;;;4993632;28;20096;-66
2023/06/03 08:05:47;;;;;;;4.80;1.30;;;20.10;61.30;;;;;;4993594;28;20038;-66
2023/06/03 08:08:14;;;;;;;2.45;1.75;;;20.10;61.30;;;;;;4998935;28;20036;-65
2023/06/03 08:10:42;;;;;;;3.03;1.70;;;20.10;61.00;;;;;;4998736;28;20045;-66
2023/06/03 08:13:07;;;;;;;3.35;1.52;;;20.10;61.00;;;;;;4996444;28;20029;-67
2023/06/03 08:15:35;;;;;;;4.55;1.63;;;20.10;61.10;;;;;;4994999;28;20034;-62
2023/06/03 08:18:08;;;;;;;5.30;1.40;;;20.10;61.10;;;;;;4993288;28;20708;-66
2023/06/03 08:20:35;;;;;;;1.80;1.38;;;20.10;61.00;;;;;;4992201;28;20037;-62
2023/06/03 08:23:02;;;;;;;1.80;1.17;;;20.10;60.90;;;;;;4991816;28;20039;-62
2023/06/03 08:25:28;;;;;;;2.42;1.58;;;20.10;61.00;;;;;;4988781;28;21084;-65
2023/06/03 08:27:53;;;;;;;2.33;1.25;;;20.10;60.90;;;;;;4999296;28;20026;-62
2023/06/03 08:30:21;;;;;;;3.03;1.38;;;20.10;60.90;;;;;;4994241;28;20145;-66
2023/06/03 08:32:48;;;;;;;1.75;1.30;;;20.10;61.00;;;;;;5000708;28;20037;-61
2023/06/03 08:35:15;;;;;;;2.47;1.20;;;20.10;60.80;;;;;;4998721;28;20116;-63
2023/06/03 08:37:42;;;;;;;2.90;1.75;;;20.10;60.80;;;;;;5004172;28;20577;-66
2023/06/03 08:40:09;;;;;;;1.85;1.30;;;20.00;60.80;;;;;;5002286;28;20041;-66
2023/06/03 08:42:46;;;;;;;2.63;1.38;;;20.10;60.90;;;;;;5000525;28;20140;-65
2023/06/03 08:45:19;;;;;;;2.22;1.10;;;20.00;60.80;;;;;;4997321;28;20038;-61
2023/06/03 08:48:16;;;;;;;2.15;1.30;;;20.00;60.80;;;;;;4999135;28;20080;-66
2023/06/03 08:50:47;;;;;;;3.42;1.30;;;20.00;60.80;;;;;;4996724;28;20034;-65
2023/06/03 08:53:13;;;;;;;2.08;1.30;;;20.00;61.10;;;;;;4998983;28;20046;-65
2023/06/03 08:55:39;;;;;;;3.08;1.30;;;20.00;61.10;;;;;;4994903;28;20600;-66
2023/06/03 08:58:11;;;;;;;3.33;1.10;;;20.00;60.80;;;;;;5006261;28;20508;-66
2023/06/03 09:00:38;;;;;;;1.48;1.08;;;20.00;60.50;;;;;;4989387;28;20053;-66
2023/06/03 09:03:05;;;;;;;1.80;1.27;;;20.00;60.30;;;;;;5001082;28;20038;-65
2023/06/03 09:05:32;;;;;;;3.42;1.42;;;20.00;60.40;;;;;;5001038;28;20026;-65
2023/06/03 09:07:58;;;;;;;2.45;1.38;;;20.00;60.30;;;;;;5002363;28;20088;-65
2023/06/03 09:10:25;;;;;;;2.40;1.30;;;20.00;60.30;;;;;;5000925;28;20217;-63
2023/06/03 09:12:55;;;;;;;2.55;1.48;;;20.00;60.20;;;;;;4999044;28;20025;-65
2023/06/03 09:15:22;;;;;;;2.05;1.30;;;20.00;60.20;;;;;;4997799;28;20030;-66
2023/06/03 09:17:47;;;;;;;2.25;1.45;;;20.00;60.20;;;;;;4996784;28;20116;-66
2023/06/03 09:20:13;;;;;;;2.22;1.40;;;20.00;60.10;;;;;;4998950;28;21039;-66
2023/06/03 09:22:42;;;;;;;2.42;1.00;;;20.00;60.10;;;;;;4996670;28;20552;-66
2023/06/03 09:25:08;;;;;;;2.45;1.02;;;20.00;60.10;;;;;;4994642;28;20595;-66
2023/06/03 09:27:34;;;;;;;3.70;1.40;;;20.00;60.10;;;;;;4993926;28;20049;-59
2023/06/03 09:30:02;;;;;;;4.93;1.70;;;20.00;60.00;;;;;;4994927;28;20038;-65
2023/06/03 09:32:30;;;;;;;2.92;1.00;;;20.00;60.00;;;;;;4996964;28;20042;-63
2023/06/03 09:34:56;;;;;;;1.58;1.10;;;20.00;60.00;;;;;;5000944;28;20030;-65
2023/06/03 09:37:22;;;;;;;6.20;1.67;;;20.00;60.00;;;;;;5000162;28;20630;-65
2023/06/03 09:39:48;;;;;;;3.30;1.20;;;20.00;60.00;;;;;;4996756;28;20401;-65
2023/06/03 09:42:15;;;;;;;3.55;1.42;;;20.00;59.90;;;;;;4996702;28;20104;-59
2023/06/03 09:44:40;;;;;;;3.80;1.15;;;20.00;59.80;;;;;;4996380;28;20041;-66
2023/06/03 09:47:06;;;;;;;4.13;1.05;;;20.00;59.80;;;;;;4996601;28;20034;-67
2023/06/03 09:49:31;;;;;;;4.55;1.35;;;19.90;59.70;;;;;;4997158;28;20497;-65
2023/06/03 09:51:57;;;;;;;3.50;1.40;;;19.90;59.80;;;;;;4993385;28;20114;-65
2023/06/03 09:54:24;;;;;;;3.28;1.25;;;20.00;59.80;;;;;;5001731;28;20070;-65
2023/06/03 09:56:51;;;;;;;5.95;1.35;;;19.90;59.60;;;;;;5002522;28;20026;-60
2023/06/03 09:59:21;;;;;;;3.67;1.08;;;19.90;59.70;;;;;;4995949;28;20088;-65
2023/06/03 10:01:48;;;;;;;3.10;1.10;;;19.90;60.00;;;;;;4995181;28;20038;-68
2023/06/03 10:04:18;;;;;;;2.40;1.20;;;20.00;59.70;;;;;;5016778;28;20677;-59
2023/06/03 10:06:43;;;;;;;3.83;1.70;;;20.00;59.70;;;;;;5002404;28;20054;-64
2023/06/03 10:09:22;;;;;;;1.80;1.02;;;20.00;59.70;;;;;;5002605;28;20469;-62
2023/06/03 10:11:49;;;;;;;2.35;1.27;;;20.00;59.70;;;;;;5001632;28;20045;-65
2023/06/03 10:14:17;;;;;;;3.10;1.10;;;20.00;59.60;;;;;;5008235;28;20080;-63
2023/06/03 10:17:03;;;;;;;2.20;1.10;;;20.00;59.60;;;;;;5006177;28;20030;-60
2023/06/03 10:19:33;;;;;;;2.55;1.05;;;20.00;59.60;;;;;;4995201;28;20038;-63
2023/06/03 10:21:58;;;;;;;1.95;0.85;;;19.90;59.60;;;;;;5002586;28;20504;-63
2023/06/03 10:24:26;;;;;;;7.03;1.27;;;19.90;59.60;;;;;;4998698;28;20049;-66
2023/06/03 10:26:52;;;;;;;2.90;1.30;;;19.90;59.60;;;;;;4993579;28;20084;-67
2023/06/03 10:29:18;;;;;;;2.22;1.02;;;19.90;59.60;;;;;;4996213;28;20026;-66
2023/06/03 10:31:45;;;;;;;1.02;0.82;;;19.90;59.70;;;;;;5002135;28;20188;-65
2023/06/03 10:34:15;;;;;;;3.75;1.10;;;19.90;59.60;;;;;;5000437;28;20509;-60
2023/06/03 10:36:42;;;;;;;1.42;0.77;;;19.90;59.50;;;;;;4999245;28;20038;-62
2023/06/03 10:39:10;;;;;;;3.15;0.90;;;19.90;59.50;;;;;;4997385;28;20030;-61
2023/06/03 10:41:39;;;;;;;4.10;1.00;;;19.90;59.40;;;;;;4996364;28;20050;-66
2023/06/03 10:44:05;;;;;;;4.07;1.40;;;19.90;59.30;;;;;;4998564;28;20046;-61
2023/06/03 10:46:33;;;;;;;2.10;1.02;;;19.90;59.40;;;;;;4997978;28;20567;-63
2023/06/03 10:49:02;;;;;;;1.30;0.95;;;19.90;59.30;;;;;;4992210;28;21156;-65
2023/06/03 10:51:52;;;;;;;3.58;1.30;;;19.90;59.40;;;;;;4998447;28;20594;-63
2023/06/03 10:54:31;;;;;;;1.88;1.00;;;19.90;59.20;;;;;;4982302;28;20034;-63
2023/06/03 10:57:06;;;;;;;1.40;0.80;;;19.90;59.30;;;;;;4998417;28;20084;-66
2023/06/03 10:59:43;;;;;;;3.22;1.15;;;19.90;59.40;;;;;;4994784;28;20034;-64
2023/06/03 11:02:09;;;;;;;2.08;1.00;;;19.90;59.20;;;;;;4997915;28;20034;-62
2023/06/03 11:04:37;;;;;;;3.05;1.10;;;19.90;59.40;;;;;;5005152;28;20041;-65
2023/06/03 11:07:27;;;;;;;4.95;1.63;;;19.90;59.20;;;;;;4994418;28;20202;-62
2023/06/03 11:09:54;;;;;;;2.13;1.08;;;19.90;59.30;;;;;;4996386;28;20038;-66
2023/06/03 11:12:20;;;;;;;4.18;0.98;;;19.90;59.30;;;;;;5008348;28;20034;-68
2023/06/03 11:14:48;;;;;;;4.57;1.05;;;19.90;59.30;;;;;;4996871;28;20052;-66
2023/06/03 11:17:18;;;;;;;3.67;0.80;;;19.90;59.20;;;;;;4989389;28;20085;-62
2023/06/03 11:19:43;;;;;;;1.40;0.70;;;19.90;59.20;;;;;;4995733;28;20030;-62
2023/06/03 11:22:10;;;;;;;1.77;1.00;;;19.90;58.90;;;;;;4998648;28;20076;-61
2023/06/03 11:24:38;;;;;;;2.05;0.90;;;19.80;59.20;;;;;;4995718;28;20061;-66
2023/06/03 11:27:24;;;;;;;2.03;1.25;;;19.80;58.70;;;;;;4997198;28;20037;-66
2023/06/03 11:29:51;;;;;;;1.33;0.80;;;19.80;58.30;;;;;;4999326;28;20031;-62
2023/06/03 11:32:21;;;;;;;4.22;1.20;;;19.80;58.40;;;;;;4998131;28;20053;-61
2023/06/03 11:34:48;;;;;;;2.28;0.82;;;19.80;58.10;;;;;;4997243;28;20560;-63
2023/06/03 11:37:19;;;;;;;2.55;0.70;;;19.80;58.30;;;;;;4997089;28;20497;-62
2023/06/03 11:40:07;;;;;;;1.33;0.98;;;19.80;58.20;;;;;;4993762;28;20054;-62
2023/06/03 11:42:46;;;;;;;1.63;0.88;;;19.90;58.60;;;;;;4992221;28;20034;-66
2023/06/03 11:45:29;;;;;;;3.00;1.08;;;19.80;58.70;;;;;;5011646;28;20358;-67
2023/06/03 11:47:59;;;;;;;2.10;1.10;;;19.90;58.70;;;;;;4993263;28;20037;-62
2023/06/03 11:50:29;;;;;;;2.00;0.85;;;19.80;58.30;;;;;;4998999;28;20030;-63
2023/06/03 11:52:55;;;;;;;2.40;0.93;;;19.90;58.80;;;;;;4996366;28;20056;-65
2023/06/03 11:55:29;;;;;;;1.67;0.77;;;19.90;58.30;;;;;;4997916;28;20416;-65
2023/06/03 11:58:06;;;;;;;2.85;0.85;;;19.90;58.50;;;;;;4999135;28;20488;-64
2023/06/03 12:00:32;;;;;;;2.13;0.88;;;19.90;58.60;;;;;;4998783;28;20037;-64
2023/06/03 12:02:57;;;;;;;5.70;1.70;;;19.90;58.10;;;;;;4998853;28;20508;-67
2023/06/03 12:05:23;;;;;;;5.68;2.20;;;19.90;58.20;;;;;;5001659;28;20041;-63
2023/06/03 12:08:08;;;;;;;6.05;2.30;;;19.90;58.50;;;;;;4999900;28;20038;-62
2023/06/03 12:10:40;;;;;;;;;;;19.90;58.40;;;;;;4998957;28;20030;-61
2023/06/03 12:13:06;;;;;;;5.07;2.10;;;19.90;58.60;;;;;;4995888;28;19910;-64
2023/06/03 12:15:31;;;;;;;8.48;2.03;;;19.90;58.70;;;;;;4994325;28;20035;-58
2023/06/03 12:18:03;;;;;;;4.25;1.85;;;19.90;58.80;;;;;;5001530;28;20460;-65
2023/06/03 12:20:29;;;;;;;6.57;3.28;;;19.90;58.90;;;;;;5004604;28;20037;-67
2023/06/03 12:22:58;;;;;;;5.53;3.15;;;19.90;58.90;;;;;;5002611;28;20037;-64
2023/06/03 12:25:24;;;;;;;9.23;3.78;;;19.90;58.90;;;;;;5002866;28;20760;-65
2023/06/03 12:27:50;;;;;;;7.43;3.97;;;19.90;59.00;;;;;;5001597;28;20284;-64
2023/06/03 12:30:29;;;;;;;6.63;3.40;;;19.90;59.00;;;;;;5000662;28;20057;-56
2023/06/03 12:32:57;;;;;;;6.60;3.70;;;19.90;59.10;;;;;;5001452;28;20512;-64
2023/06/03 12:35:25;;;;;;;6.10;4.15;;;19.90;59.30;;;;;;5001281;28;20117;-63
2023/06/03 12:38:03;;;;;;;7.60;4.22;;;19.80;59.10;;;;;;4999851;28;20037;-61
2023/06/03 12:40:28;;;;;;;7.95;4.38;;;19.90;59.20;;;;;;4998581;28;20039;-60
2023/06/03 12:42:54;;;;;;;10.20;4.75;;;19.90;59.20;;;;;;4999605;28;20144;-64
2023/06/03 12:45:24;;;;;;;8.65;4.15;;;19.90;59.20;;;;;;4998266;28;20040;-64
2023/06/03 12:47:50;;;;;;;7.22;4.25;;;19.90;59.20;;;;;;5003511;28;20057;-66
2023/06/03 12:50:16;;;;;;;11.10;4.95;;;19.90;59.40;;;;;;5001884;28;20096;-67
2023/06/03 12:52:42;;;;;;;8.45;5.32;;;19.90;59.20;;;;;;5003376;28;20042;-66
2023/06/03 12:55:12;;;;;;;11.70;5.03;;;19.90;59.10;;;;;;5004860;28;20041;-63